Time;durP1;ratioP1;P1;durP2;ratioP2;P2;SDS_P1;SDS_P2;PMS_P1;PMS_P2;Temp;Humidity;BMP_temperature;BMP_pressure;BME280_temperature;BME280_humidity;BME280_pressure;Samples;Min_cycle;Max_cycle;Signal;HPM_P1;HPM_P2
2023/04/23 00:01:26;;;;;;;3.10;2.80;;;14.50;71.50;;;;;;5010071;28;20533;-67
2023/04/23 00:03:57;;;;;;;3.80;3.10;;;14.50;71.00;;;;;;5008493;28;21130;-68
2023/04/23 00:06:25;;;;;;;3.47;3.17;;;14.50;72.60;;;;;;5010280;28;20441;-67
2023/04/23 00:08:54;;;;;;;5.00;3.07;;;14.50;71.50;;;;;;5009776;28;20456;-68
2023/04/23 00:11:21;;;;;;;5.97;2.93;;;14.50;71.10;;;;;;5006039;28;20558;-68
2023/04/23 00:13:49;;;;;;;3.83;3.27;;;14.50;70.60;;;;;;5015283;28;20454;-68
2023/04/23 00:16:16;;;;;;;3.80;3.07;;;14.50;70.60;;;;;;5009957;28;20459;-68
2023/04/23 00:18:43;;;;;;;2.90;2.70;;;14.50;71.10;;;;;;5009466;28;20539;-68
2023/04/23 00:21:10;;;;;;;3.60;3.17;;;14.60;70.50;;;;;;5009349;28;20449;-67
2023/04/23 00:23:38;;;;;;;5.73;2.97;;;14.60;71.00;;;;;;5008420;28;20461;-68
2023/04/23 00:26:06;;;;;;;3.43;2.80;;;14.60;70.40;;;;;;5009059;28;20444;-67
2023/04/23 00:28:33;;;;;;;3.70;2.80;;;14.60;70.60;;;;;;5009739;28;20456;-67
2023/04/23 00:30:59;;;;;;;3.10;2.77;;;14.60;71.20;;;;;;5009434;28;20494;-67
2023/04/23 00:33:26;;;;;;;3.50;3.00;;;14.60;70.90;;;;;;5008857;28;20838;-68
2023/04/23 00:35:53;;;;;;;5.30;2.57;;;14.60;72.20;;;;;;5009540;28;20437;-67
2023/04/23 00:38:20;;;;;;;4.80;2.93;;;14.40;73.70;;;;;;5000007;28;20451;-69
2023/04/23 00:40:47;;;;;;;5.53;2.90;;;14.30;74.60;;;;;;4991427;28;20463;-69
2023/04/23 00:43:16;;;;;;;5.60;2.97;;;14.20;76.40;;;;;;5019913;28;20475;-69
2023/04/23 00:45:43;;;;;;;4.03;2.43;;;14.10;77.10;;;;;;5013141;28;20941;-68
2023/04/23 00:48:11;;;;;;;4.17;3.00;;;14.00;77.40;;;;;;5001144;28;20465;-68
2023/04/23 00:50:38;;;;;;;2.90;2.70;;;13.90;78.20;;;;;;5008977;28;20488;-69
2023/04/23 00:53:05;;;;;;;4.97;2.90;;;13.90;78.70;;;;;;5007457;28;20477;-69
2023/04/23 00:55:33;;;;;;;2.93;2.73;;;13.80;79.50;;;;;;5009418;28;20452;-69
2023/04/23 00:58:00;;;;;;;4.50;3.10;;;13.70;80.20;;;;;;5008792;28;20445;-68
2023/04/23 01:00:29;;;;;;;3.77;2.70;;;13.70;81.90;;;;;;5008818;28;20445;-69
2023/04/23 01:02:57;;;;;;;3.00;2.70;;;13.60;82.90;;;;;;5004904;28;21083;-69
2023/04/23 01:05:24;;;;;;;5.03;2.70;;;13.50;84.70;;;;;;5007213;28;20468;-69
2023/04/23 01:07:51;;;;;;;5.60;3.70;;;13.40;85.60;;;;;;5008925;28;20499;-70
2023/04/23 01:10:18;;;;;;;4.40;2.50;;;13.40;86.50;;;;;;5007645;28;20487;-69
2023/04/23 01:12:45;;;;;;;2.93;2.70;;;13.30;86.60;;;;;;5014102;28;20473;-70
2023/04/23 01:15:12;;;;;;;4.27;2.90;;;13.20;88.80;;;;;;5029589;28;20460;-70
2023/04/23 01:17:40;;;;;;;3.80;3.00;;;13.10;87.90;;;;;;5029392;28;20452;-70
2023/04/23 01:20:08;;;;;;;4.90;3.47;;;13.10;88.40;;;;;;5029704;28;21212;-70
2023/04/23 01:22:37;;;;;;;3.83;2.67;;;13.10;88.70;;;;;;4993286;28;20478;-68
2023/04/23 01:25:04;;;;;;;4.90;3.10;;;13.10;88.80;;;;;;4991762;28;20508;-69
2023/04/23 01:27:34;;;;;;;3.20;2.90;;;13.00;90.20;;;;;;4991472;28;20453;-69
2023/04/23 01:30:03;;;;;;;3.87;3.30;;;13.00;90.00;;;;;;4991257;28;21061;-69
2023/04/23 01:32:30;;;;;;;3.90;2.83;;;13.10;88.10;;;;;;4989377;28;20483;-68
2023/04/23 01:34:58;;;;;;;3.50;2.83;;;13.10;88.40;;;;;;4994373;28;20464;-68
2023/04/23 01:37:26;;;;;;;3.03;2.60;;;13.10;87.10;;;;;;4995576;28;20453;-68
2023/04/23 01:39:54;;;;;;;4.87;3.23;;;13.10;87.50;;;;;;4991106;28;20500;-68
2023/04/23 01:42:22;;;;;;;4.37;3.10;;;13.10;87.90;;;;;;4990673;28;21062;-69
2023/04/23 01:44:49;;;;;;;4.13;3.43;;;13.10;88.10;;;;;;4990988;28;20452;-68
2023/04/23 01:47:16;;;;;;;3.17;2.80;;;13.10;88.50;;;;;;4991216;28;20460;-71
2023/04/23 01:49:43;;;;;;;5.00;3.33;;;13.10;88.20;;;;;;4991293;28;20449;-69
2023/04/23 01:52:10;;;;;;;4.07;3.23;;;13.00;88.60;;;;;;4991707;28;20492;-69
2023/04/23 01:54:37;;;;;;;3.50;3.20;;;13.00;87.80;;;;;;4990113;28;20467;-69
2023/04/23 01:57:05;;;;;;;3.20;2.90;;;13.00;88.40;;;;;;5005481;28;20452;-70
2023/04/23 01:59:32;;;;;;;3.53;3.23;;;12.90;88.80;;;;;;5011232;28;20474;-70
2023/04/23 02:01:59;;;;;;;4.97;3.23;;;12.90;89.00;;;;;;5010066;28;20960;-70
2023/04/23 02:04:25;;;;;;;3.33;2.90;;;12.90;89.00;;;;;;5009527;28;20454;-69
2023/04/23 02:06:52;;;;;;;3.17;2.73;;;12.90;89.90;;;;;;5010272;28;20439;-69
2023/04/23 02:09:20;;;;;;;2.87;2.53;;;13.00;89.40;;;;;;5010418;28;20454;-68
2023/04/23 02:11:46;;;;;;;5.83;3.00;;;13.00;89.10;;;;;;4992020;28;20885;-70
2023/04/23 02:14:14;;;;;;;3.03;2.60;;;13.00;89.40;;;;;;4989557;28;20962;-69
2023/04/23 02:16:41;;;;;;;4.77;3.43;;;13.00;89.70;;;;;;4990782;28;20453;-70
2023/04/23 02:19:08;;;;;;;4.17;3.17;;;12.90;89.20;;;;;;4990914;28;20453;-68
2023/04/23 02:21:35;;;;;;;3.77;3.23;;;12.90;90.20;;;;;;4990664;28;20548;-70
2023/04/23 02:24:02;;;;;;;5.53;3.37;;;12.80;90.40;;;;;;4989869;28;20476;-69
2023/04/23 02:26:29;;;;;;;3.80;3.33;;;12.80;91.50;;;;;;4993696;28;20480;-69
2023/04/23 02:28:55;;;;;;;4.13;2.93;;;12.70;92.30;;;;;;5010138;28;20824;-68
2023/04/23 02:31:24;;;;;;;6.20;4.20;;;12.60;92.20;;;;;;5010687;28;21016;-68
2023/04/23 02:33:51;;;;;;;3.63;3.30;;;12.50;92.80;;;;;;5009279;28;20505;-69
2023/04/23 02:36:18;;;;;;;4.80;3.47;;;12.50;93.30;;;;;;5010286;28;20797;-68
2023/04/23 02:38:47;;;;;;;3.57;3.27;;;12.30;94.20;;;;;;5010422;28;20447;-68
2023/04/23 02:41:14;;;;;;;4.93;3.60;;;12.30;94.50;;;;;;5010029;28;20462;-70
2023/04/23 02:43:40;;;;;;;5.00;3.70;;;12.30;94.90;;;;;;5001966;28;20458;-70
2023/04/23 02:46:08;;;;;;;5.43;3.60;;;12.20;95.10;;;;;;4991002;28;20434;-69
2023/04/23 02:48:38;;;;;;;3.60;3.30;;;12.20;95.10;;;;;;4990642;28;20452;-69
2023/04/23 02:51:05;;;;;;;4.73;3.37;;;12.20;95.80;;;;;;4990530;28;20479;-69
2023/04/23 02:53:32;;;;;;;3.80;3.47;;;12.10;95.70;;;;;;4989193;28;20881;-69
2023/04/23 02:56:00;;;;;;;6.57;3.90;;;12.00;96.60;;;;;;4990495;28;20435;-68
2023/04/23 02:58:27;;;;;;;5.53;4.70;;;11.90;96.90;;;;;;4990157;28;20502;-69
2023/04/23 03:00:54;;;;;;;3.70;3.40;;;11.90;96.60;;;;;;4991462;28;20451;-69
2023/04/23 03:03:21;;;;;;;6.20;3.90;;;11.80;97.20;;;;;;4988906;28;20510;-70
2023/04/23 03:05:49;;;;;;;4.67;4.20;;;11.70;97.90;;;;;;5000380;28;20438;-70
2023/04/23 03:08:16;;;;;;;4.27;3.80;;;11.60;98.60;;;;;;5029831;28;20926;-70
2023/04/23 03:10:42;;;;;;;5.00;4.50;;;11.70;99.80;;;;;;5029435;28;20470;-70
2023/04/23 03:13:09;;;;;;;6.87;4.00;;;11.70;99.70;;;;;;5028370;28;20459;-69
2023/04/23 03:15:36;;;;;;;6.70;4.90;;;11.70;99.80;;;;;;5029630;28;20451;-68
2023/04/23 03:18:07;;;;;;;5.07;4.60;;;11.60;99.90;;;;;;4995936;28;20452;-69
2023/04/23 03:20:33;;;;;;;5.83;5.30;;;11.60;99.90;;;;;;4990541;28;20449;-69
2023/04/23 03:23:05;;;;;;;5.33;4.83;;;11.60;99.90;;;;;;4988824;28;20464;-70
2023/04/23 03:25:31;;;;;;;6.43;5.23;;;11.60;99.90;;;;;;4990342;28;20467;-68
2023/04/23 03:27:58;;;;;;;5.87;5.10;;;11.60;99.90;;;;;;4990023;28;20471;-70
2023/04/23 03:30:26;;;;;;;6.00;5.13;;;11.50;99.90;;;;;;4989769;28;20440;-68
2023/04/23 03:32:53;;;;;;;5.53;5.03;;;11.50;99.90;;;;;;4990066;28;20476;-70
2023/04/23 03:35:19;;;;;;;5.20;4.40;;;11.50;99.90;;;;;;4989973;28;20441;-70
2023/04/23 03:37:46;;;;;;;4.83;4.40;;;11.50;99.90;;;;;;4990218;28;20452;-71
2023/04/23 03:40:14;;;;;;;5.10;4.30;;;11.50;99.90;;;;;;4990056;28;20460;-70
2023/04/23 03:42:41;;;;;;;6.43;5.10;;;11.40;99.90;;;;;;4988740;28;21081;-69
2023/04/23 03:45:10;;;;;;;4.80;4.40;;;11.50;99.90;;;;;;4989938;28;20444;-68
2023/04/23 03:47:36;;;;;;;4.60;4.20;;;11.60;99.90;;;;;;4990030;28;20866;-70
2023/04/23 03:50:04;;;;;;;5.30;4.80;;;11.70;99.90;;;;;;4991117;28;20452;-70
2023/04/23 03:52:30;;;;;;;6.60;4.40;;;11.70;99.90;;;;;;4988784;28;20493;-70
2023/04/23 03:54:57;;;;;;;4.87;4.47;;;11.60;99.90;;;;;;4992315;28;20446;-69
2023/04/23 03:57:25;;;;;;;5.67;4.00;;;11.60;99.90;;;;;;5014675;28;20454;-68
2023/04/23 03:59:52;;;;;;;4.37;3.97;;;11.60;99.90;;;;;;5017437;28;20452;-70
2023/04/23 04:02:19;;;;;;;5.03;4.53;;;11.60;99.90;;;;;;5016913;28;20464;-68
2023/04/23 04:04:48;;;;;;;6.30;4.53;;;11.70;99.90;;;;;;5016253;28;20441;-69
2023/04/23 04:07:15;;;;;;;4.20;3.90;;;11.60;99.90;;;;;;5013303;28;20446;-70
2023/04/23 04:09:42;;;;;;;4.20;3.80;;;11.50;99.90;;;;;;5011490;28;20447;-69
2023/04/23 04:12:09;;;;;;;4.20;3.80;;;11.50;99.90;;;;;;4992458;28;20583;-69
2023/04/23 04:14:37;;;;;;;4.43;3.93;;;11.50;99.90;;;;;;4992736;28;20848;-69
2023/04/23 04:17:04;;;;;;;5.63;3.57;;;11.50;99.90;;;;;;4993233;28;20451;-68
2023/04/23 04:19:31;;;;;;;3.40;3.10;;;11.50;99.90;;;;;;4993231;28;20530;-69
2023/04/23 04:21:58;;;;;;;2.70;2.50;;;11.50;99.50;;;;;;4993216;28;20459;-69
2023/04/23 04:24:26;;;;;;;3.43;3.13;;;11.50;99.40;;;;;;4995382;28;20449;-67
2023/04/23 04:26:52;;;;;;;3.70;3.40;;;11.40;99.60;;;;;;5013296;28;20450;-69
2023/04/23 04:29:20;;;;;;;3.83;3.37;;;11.20;99.80;;;;;;5013021;28;20452;-68
2023/04/23 04:31:48;;;;;;;4.27;3.33;;;11.30;99.90;;;;;;5012436;28;20482;-71
2023/04/23 04:34:16;;;;;;;5.60;3.00;;;11.40;99.50;;;;;;5010094;28;20520;-69
2023/04/23 04:36:43;;;;;;;4.53;3.70;;;11.40;99.40;;;;;;5012236;28;20457;-69
2023/04/23 04:39:12;;;;;;;6.80;3.87;;;11.20;99.50;;;;;;5012599;28;20456;-70
2023/04/23 04:41:39;;;;;;;3.60;3.30;;;11.20;99.90;;;;;;5010591;28;20583;-70
2023/04/23 04:44:07;;;;;;;6.03;3.67;;;11.30;99.90;;;;;;5031005;28;20480;-69
2023/04/23 04:46:34;;;;;;;6.20;5.60;;;11.40;99.90;;;;;;5032245;28;20467;-69
2023/04/23 04:49:02;;;;;;;5.07;3.63;;;11.30;99.90;;;;;;5031863;28;20445;-69
2023/04/23 04:51:29;;;;;;;3.23;2.67;;;11.30;99.90;;;;;;5032064;28;20490;-69
2023/04/23 04:53:56;;;;;;;3.97;3.57;;;11.30;99.90;;;;;;5030537;28;20451;-69
2023/04/23 04:56:24;;;;;;;4.50;4.10;;;11.30;99.90;;;;;;5025345;28;20442;-69
2023/04/23 04:58:51;;;;;;;4.03;3.70;;;11.30;99.90;;;;;;5011742;28;20447;-69
2023/04/23 05:01:19;;;;;;;5.93;3.33;;;11.30;99.90;;;;;;5012000;28;20436;-68
2023/04/23 05:03:46;;;;;;;3.57;3.37;;;11.30;99.90;;;;;;5011261;28;20442;-68
2023/04/23 05:06:14;;;;;;;4.30;3.53;;;11.30;99.90;;;;;;5011735;28;20442;-68
2023/04/23 05:08:46;;;;;;;3.80;3.10;;;11.40;99.90;;;;;;5012459;28;20446;-69
2023/04/23 05:11:13;;;;;;;3.20;2.90;;;11.50;99.90;;;;;;5012262;28;20446;-68
2023/04/23 05:13:40;;;;;;;3.03;2.73;;;11.60;99.90;;;;;;5009392;28;20538;-69
2023/04/23 05:16:08;;;;;;;3.07;2.87;;;11.70;99.90;;;;;;5012060;28;20474;-68
2023/04/23 05:18:35;;;;;;;3.83;2.83;;;11.70;99.90;;;;;;5011721;28;20864;-70
2023/04/23 05:21:02;;;;;;;3.40;3.13;;;11.80;99.90;;;;;;5012306;28;20452;-68
2023/04/23 05:23:30;;;;;;;3.80;3.00;;;11.90;99.90;;;;;;5010765;28;20478;-69
2023/04/23 05:25:57;;;;;;;3.77;3.47;;;12.00;99.90;;;;;;5011794;28;20524;-69
2023/04/23 05:28:24;;;;;;;3.50;3.20;;;12.10;99.90;;;;;;5011853;28;20475;-69
2023/04/23 05:30:52;;;;;;;2.67;2.47;;;12.30;99.40;;;;;;5010078;28;20450;-69
2023/04/23 05:33:18;;;;;;;3.23;2.77;;;12.40;98.90;;;;;;5008920;28;20487;-69
2023/04/23 05:35:45;;;;;;;3.73;3.43;;;12.60;98.20;;;;;;5011313;28;20456;-68
2023/04/23 05:38:12;;;;;;;3.37;3.07;;;12.80;97.60;;;;;;5011989;28;21012;-68
2023/04/23 05:40:40;;;;;;;3.77;3.30;;;12.90;97.90;;;;;;5011415;28;20464;-69
2023/04/23 05:43:07;;;;;;;2.97;2.63;;;13.00;97.40;;;;;;5010123;28;20469;-69
2023/04/23 05:45:34;;;;;;;4.20;2.67;;;13.00;96.70;;;;;;5011610;28;20442;-69
2023/04/23 05:48:01;;;;;;;3.77;2.63;;;13.10;97.30;;;;;;5009548;28;20827;-69
2023/04/23 05:50:27;;;;;;;3.50;2.80;;;13.20;96.60;;;;;;5011107;28;20814;-70
2023/04/23 05:52:54;;;;;;;2.73;2.53;;;13.10;96.60;;;;;;5009840;28;20486;-69
2023/04/23 05:55:22;;;;;;;3.27;2.40;;;13.10;96.60;;;;;;5009722;28;20449;-69
2023/04/23 05:57:50;;;;;;;2.47;2.23;;;13.10;96.50;;;;;;4991433;28;20464;-69
2023/04/23 06:00:18;;;;;;;3.03;2.50;;;13.20;97.00;;;;;;4990983;28;20455;-69
2023/04/23 06:02:45;;;;;;;2.50;2.30;;;13.40;96.60;;;;;;4990346;28;20482;-69
2023/04/23 06:05:12;;;;;;;2.50;2.30;;;13.50;96.70;;;;;;4991280;28;20478;-69
2023/04/23 06:07:40;;;;;;;2.00;1.90;;;13.70;96.50;;;;;;4991278;28;20454;-69
2023/04/23 06:10:08;;;;;;;5.57;2.63;;;13.80;95.70;;;;;;4995479;28;20464;-68
2023/04/23 06:12:37;;;;;;;3.40;2.40;;;14.00;95.00;;;;;;5009341;28;20488;-69
2023/04/23 06:15:07;;;;;;;2.33;1.93;;;14.20;95.00;;;;;;5010808;28;20453;-69
2023/04/23 06:17:34;;;;;;;1.70;1.60;;;14.30;94.10;;;;;;5010426;28;21082;-69
2023/04/23 06:20:01;;;;;;;1.70;1.57;;;14.40;92.10;;;;;;5010925;28;20453;-68
2023/04/23 06:22:27;;;;;;;2.27;2.07;;;14.40;91.80;;;;;;5009646;28;20465;-69
2023/04/23 06:24:54;;;;;;;2.03;1.93;;;14.50;92.30;;;;;;5010350;28;20455;-69
2023/04/23 06:27:21;;;;;;;2.27;1.70;;;14.60;92.30;;;;;;5008802;28;20881;-69
2023/04/23 06:29:48;;;;;;;2.73;1.70;;;14.60;92.60;;;;;;5009865;28;20539;-69
2023/04/23 06:32:16;;;;;;;1.53;1.43;;;14.70;92.80;;;;;;5010016;28;20487;-70
2023/04/23 06:34:43;;;;;;;2.53;1.70;;;14.70;91.30;;;;;;5010186;28;20455;-69
2023/04/23 06:37:10;;;;;;;3.53;2.10;;;14.70;91.40;;;;;;5010718;28;20461;-69
2023/04/23 06:39:36;;;;;;;2.87;1.80;;;14.70;92.10;;;;;;5010137;28;20462;-70
2023/04/23 06:42:03;;;;;;;1.67;1.57;;;14.70;92.10;;;;;;5009745;28;20559;-69
2023/04/23 06:44:30;;;;;;;1.50;1.40;;;14.70;91.60;;;;;;4995048;28;20453;-70
2023/04/23 06:46:57;;;;;;;1.70;1.60;;;14.90;91.60;;;;;;4990852;28;20455;-68
2023/04/23 06:49:25;;;;;;;2.10;1.63;;;14.90;91.70;;;;;;4990408;28;20526;-68
2023/04/23 06:51:52;;;;;;;2.27;1.97;;;15.00;90.60;;;;;;4990315;28;20511;-68
2023/04/23 06:54:18;;;;;;;1.80;1.40;;;15.10;90.80;;;;;;4988890;28;20810;-68
2023/04/23 06:56:45;;;;;;;1.47;1.37;;;15.20;90.90;;;;;;4990220;28;20840;-69
2023/04/23 06:59:12;;;;;;;1.43;1.33;;;15.50;90.70;;;;;;4990333;28;20827;-68
2023/04/23 07:01:39;;;;;;;2.13;1.50;;;15.60;88.50;;;;;;5008766;28;20469;-68
2023/04/23 07:04:06;;;;;;;1.50;1.40;;;15.80;86.70;;;;;;5009227;28;20453;-69
2023/04/23 07:06:34;;;;;;;2.30;1.80;;;15.80;84.50;;;;;;5009952;28;21006;-68
2023/04/23 07:09:01;;;;;;;1.93;1.33;;;15.90;85.40;;;;;;5010164;28;20458;-69
2023/04/23 07:11:29;;;;;;;1.63;1.53;;;15.80;84.80;;;;;;5010139;28;20441;-71
2023/04/23 07:13:56;;;;;;;1.30;1.20;;;15.70;87.50;;;;;;5008577;28;21015;-68
2023/04/23 07:16:24;;;;;;;1.93;1.27;;;15.80;85.50;;;;;;5008224;28;20542;-69
2023/04/23 07:18:51;;;;;;;1.40;1.00;;;15.60;83.40;;;;;;5009717;28;20461;-70
2023/04/23 07:21:18;;;;;;;3.77;1.50;;;15.60;85.60;;;;;;5009917;28;20439;-68
2023/04/23 07:23:46;;;;;;;1.00;0.90;;;15.30;81.70;;;;;;5008538;28;20459;-69
2023/04/23 07:26:13;;;;;;;3.23;1.20;;;15.30;82.10;;;;;;5010072;28;20456;-68
2023/04/23 07:28:39;;;;;;;1.50;1.20;;;15.40;82.80;;;;;;5009912;28;20451;-68
2023/04/23 07:31:06;;;;;;;3.20;1.70;;;15.40;81.40;;;;;;5012135;28;20448;-68
2023/04/23 07:33:33;;;;;;;1.20;1.10;;;15.30;86.60;;;;;;5010641;28;20489;-69
2023/04/23 07:36:00;;;;;;;2.40;1.40;;;15.40;85.90;;;;;;5013209;28;20447;-69
2023/04/23 07:38:32;;;;;;;1.90;1.57;;;15.50;86.10;;;;;;5013652;28;20855;-69
2023/04/23 07:41:00;;;;;;;1.13;1.03;;;15.60;82.00;;;;;;5012978;28;20457;-69
2023/04/23 07:43:27;;;;;;;1.33;1.23;;;15.60;81.20;;;;;;5011917;28;21007;-69
2023/04/23 07:45:54;;;;;;;3.50;1.30;;;15.50;78.80;;;;;;5013546;28;20447;-68
2023/04/23 07:48:21;;;;;;;1.60;1.30;;;15.40;79.70;;;;;;5022550;28;20444;-68
2023/04/23 07:50:47;;;;;;;2.40;1.00;;;15.40;81.40;;;;;;5002783;28;20459;-70
2023/04/23 07:53:15;;;;;;;1.83;1.10;;;15.40;81.00;;;;;;4992534;28;20575;-68
2023/04/23 07:55:41;;;;;;;0.97;0.97;;;15.50;81.70;;;;;;4997145;28;20455;-68
2023/04/23 07:58:10;;;;;;;1.10;1.00;;;15.60;82.80;;;;;;5013455;28;20485;-70
2023/04/23 08:00:36;;;;;;;1.50;1.40;;;15.70;84.40;;;;;;5012787;28;20765;-69
2023/04/23 08:03:03;;;;;;;1.33;1.23;;;16.00;77.20;;;;;;5012007;28;20225;-73
2023/04/23 08:05:30;;;;;;;1.40;1.30;;;15.90;77.30;;;;;;5012697;28;20446;-70
2023/04/23 08:07:57;;;;;;;2.00;1.20;;;15.80;76.70;;;;;;5012768;28;20948;-69
2023/04/23 08:10:24;;;;;;;2.10;1.40;;;15.90;78.50;;;;;;5006079;28;20451;-69
2023/04/23 08:12:51;;;;;;;1.40;1.30;;;16.00;78.30;;;;;;4991942;28;20580;-69
2023/04/23 08:15:19;;;;;;;1.40;1.30;;;16.00;78.00;;;;;;4993406;28;20459;-68
2023/04/23 08:17:45;;;;;;;1.23;1.13;;;16.20;78.40;;;;;;4992954;28;20453;-68
2023/04/23 08:20:12;;;;;;;1.20;1.10;;;16.50;79.00;;;;;;4993288;28;20465;-69
2023/04/23 08:22:39;;;;;;;2.63;1.20;;;16.70;72.70;;;;;;4991961;28;20838;-69
2023/04/23 08:25:07;;;;;;;1.63;1.53;;;17.00;69.70;;;;;;4992904;28;20844;-68
2023/04/23 08:27:34;;;;;;;1.60;1.50;;;17.20;72.90;;;;;;4993821;28;20457;-68
2023/04/23 08:30:00;;;;;;;1.57;1.40;;;17.50;70.10;;;;;;4992737;28;20478;-69
2023/04/23 08:32:29;;;;;;;1.40;1.30;;;17.70;67.80;;;;;;4999887;28;20481;-70
2023/04/23 08:34:57;;;;;;;2.73;1.43;;;18.10;71.50;;;;;;5007973;28;20450;-69
2023/04/23 08:37:24;;;;;;;1.80;1.40;;;18.30;64.40;;;;;;5011701;28;20457;-69
2023/04/23 08:39:51;;;;;;;1.63;1.30;;;18.60;68.20;;;;;;5011280;28;20982;-70
2023/04/23 08:42:24;;;;;;;1.60;1.50;;;18.90;63.70;;;;;;5011022;28;20466;-69
2023/04/23 08:44:53;;;;;;;2.03;1.77;;;19.10;60.50;;;;;;5011957;28;20469;-68
2023/04/23 08:47:23;;;;;;;2.07;1.63;;;19.20;63.30;;;;;;5011859;28;20445;-68
2023/04/23 08:49:54;;;;;;;2.13;1.90;;;19.40;64.70;;;;;;5011787;28;20829;-68
2023/04/23 08:52:24;;;;;;;1.67;1.27;;;19.50;61.40;;;;;;4993003;28;20482;-70
2023/04/23 08:54:54;;;;;;;1.93;1.30;;;19.70;59.70;;;;;;4991911;28;20446;-70
2023/04/23 08:57:21;;;;;;;1.30;1.20;;;19.40;56.20;;;;;;4992327;28;20539;-69
2023/04/23 08:59:48;;;;;;;3.13;1.40;;;19.30;58.90;;;;;;4992153;28;20442;-70
2023/04/23 09:02:17;;;;;;;1.87;1.40;;;19.30;56.70;;;;;;4991855;28;20467;-71
2023/04/23 09:04:45;;;;;;;1.83;1.30;;;19.30;57.00;;;;;;4993811;28;20445;-70
2023/04/23 09:07:14;;;;;;;1.50;1.40;;;19.40;62.00;;;;;;5011795;28;20492;-70
2023/04/23 09:09:41;;;;;;;1.40;1.30;;;19.60;59.60;;;;;;5011835;28;20805;-71
2023/04/23 09:12:09;;;;;;;1.83;1.47;;;19.80;56.10;;;;;;5010903;28;20466;-70
2023/04/23 09:14:36;;;;;;;1.53;1.43;;;20.00;56.80;;;;;;5010815;28;20481;-69
2023/04/23 09:17:03;;;;;;;1.97;1.30;;;20.30;56.00;;;;;;5011224;28;20454;-69
2023/04/23 09:19:31;;;;;;;1.57;1.47;;;20.30;56.30;;;;;;5011406;28;20955;-69
2023/04/23 09:21:59;;;;;;;1.93;1.57;;;20.30;55.50;;;;;;5009590;28;20917;-70
2023/04/23 09:24:29;;;;;;;1.83;1.30;;;20.10;57.10;;;;;;5011023;28;20458;-69
2023/04/23 09:26:58;;;;;;;2.23;1.83;;;19.90;56.70;;;;;;5011672;28;20500;-70
2023/04/23 09:29:25;;;;;;;1.77;1.50;;;20.00;56.40;;;;;;5010101;28;20561;-69
2023/04/23 09:31:54;;;;;;;2.50;1.50;;;20.00;56.30;;;;;;5010349;28;20481;-69
2023/04/23 09:34:22;;;;;;;1.80;1.70;;;20.40;55.90;;;;;;5007302;28;21109;-70
2023/04/23 09:36:51;;;;;;;2.33;1.53;;;20.20;54.40;;;;;;4990839;28;20945;-70
2023/04/23 09:39:21;;;;;;;1.90;1.47;;;19.90;56.20;;;;;;5005486;28;20458;-70
2023/04/23 09:41:51;;;;;;;2.13;1.60;;;19.90;53.80;;;;;;5010436;28;20470;-68
2023/04/23 09:44:21;;;;;;;2.33;1.60;;;19.90;57.00;;;;;;5008529;28;20941;-70
2023/04/23 09:46:49;;;;;;;1.50;1.40;;;20.40;57.60;;;;;;5010081;28;20525;-69
2023/04/23 09:49:16;;;;;;;1.57;1.47;;;20.80;56.70;;;;;;5009995;28;20450;-70
2023/04/23 09:51:44;;;;;;;1.70;1.47;;;20.50;56.00;;;;;;5010004;28;21183;-69
2023/04/23 09:54:13;;;;;;;3.87;1.77;;;20.40;54.40;;;;;;4998952;28;20584;-69
2023/04/23 09:56:40;;;;;;;1.70;1.50;;;20.80;56.00;;;;;;4998823;28;20884;-71
2023/04/23 09:59:22;;;;;;;1.70;1.60;;;21.10;55.50;;;;;;4999745;28;20457;-70
2023/04/23 10:01:49;;;;;;;2.67;1.50;;;21.80;54.50;;;;;;4997688;28;20506;-70
2023/04/23 10:04:19;;;;;;;2.00;1.80;;;22.40;52.00;;;;;;5000989;28;20445;-69
2023/04/23 10:06:46;;;;;;;1.70;1.60;;;22.90;49.70;;;;;;4991975;28;20479;-69
2023/04/23 10:09:13;;;;;;;1.73;1.23;;;23.60;52.40;;;;;;5002360;28;20457;-68
2023/04/23 10:11:42;;;;;;;1.53;1.43;;;24.00;50.30;;;;;;4995000;28;20462;-70
2023/04/23 10:14:09;;;;;;;1.80;1.70;;;24.40;49.70;;;;;;5000041;28;20859;-67
2023/04/23 10:16:39;;;;;;;1.63;1.40;;;24.60;46.20;;;;;;4996781;28;20955;-69
2023/04/23 10:19:10;;;;;;;3.20;1.30;;;24.70;48.20;;;;;;5028395;28;20477;-69
2023/04/23 10:21:37;;;;;;;2.27;1.50;;;24.70;45.90;;;;;;5028161;28;20522;-70
2023/04/23 10:24:06;;;;;;;1.70;1.30;;;24.50;46.60;;;;;;5022874;28;21123;-70
2023/04/23 10:26:33;;;;;;;1.77;1.10;;;24.40;46.00;;;;;;5008056;28;20446;-70
2023/04/23 10:29:01;;;;;;;1.40;1.13;;;24.00;42.30;;;;;;5004924;28;20446;-70
2023/04/23 10:31:30;;;;;;;1.87;1.30;;;23.80;42.60;;;;;;5003373;28;20457;-71
2023/04/23 10:34:00;;;;;;;3.47;1.20;;;23.80;46.10;;;;;;4990667;28;20474;-70
2023/04/23 10:36:27;;;;;;;3.13;1.00;;;23.70;46.40;;;;;;5000650;28;20836;-70
2023/04/23 10:38:55;;;;;;;2.27;1.23;;;23.80;46.30;;;;;;5000699;28;20439;-70
2023/04/23 10:41:26;;;;;;;2.40;1.23;;;23.80;46.50;;;;;;4990609;28;20466;-70
2023/04/23 10:43:53;;;;;;;1.47;1.20;;;23.50;46.00;;;;;;4993528;28;20537;-70
2023/04/23 10:46:38;;;;;;;1.10;1.00;;;23.60;48.70;;;;;;4993294;28;20461;-71
2023/04/23 10:49:13;;;;;;;1.37;1.10;;;23.90;47.80;;;;;;4995752;28;20446;-71
2023/04/23 10:51:42;;;;;;;1.53;0.80;;;23.90;48.20;;;;;;5002816;28;20487;-71
2023/04/23 10:54:10;;;;;;;1.47;1.07;;;23.80;46.80;;;;;;5003325;28;20548;-71
2023/04/23 10:56:38;;;;;;;1.00;0.70;;;23.70;45.90;;;;;;5004746;28;21173;-71
2023/04/23 10:59:08;;;;;;;1.40;1.00;;;23.90;46.40;;;;;;4998842;28;20457;-71
2023/04/23 11:01:35;;;;;;;1.00;0.83;;;24.30;44.20;;;;;;4999185;28;20474;-71
2023/04/23 11:04:20;;;;;;;1.30;1.10;;;24.50;46.40;;;;;;4998474;28;20454;-71
2023/04/23 11:06:53;;;;;;;1.87;1.30;;;24.20;45.80;;;;;;4998883;28;20485;-71
2023/04/23 11:09:40;;;;;;;2.30;1.20;;;23.80;44.90;;;;;;5001235;28;21038;-71
2023/04/23 11:12:10;;;;;;;1.70;1.33;;;23.50;44.70;;;;;;5003568;28;20473;-70
2023/04/23 11:14:42;;;;;;;1.77;0.90;;;24.00;44.80;;;;;;5000863;28;20492;-72
2023/04/23 11:17:12;;;;;;;1.47;1.20;;;24.00;45.30;;;;;;5006395;28;20944;-71
2023/04/23 11:19:41;;;;;;;1.20;0.90;;;24.10;47.70;;;;;;5003338;28;20512;-71
2023/04/23 11:22:13;;;;;;;2.03;1.10;;;24.50;43.40;;;;;;5002063;28;20835;-71
2023/04/23 11:24:42;;;;;;;1.10;0.97;;;24.80;45.00;;;;;;5000746;28;20449;-72
2023/04/23 11:27:10;;;;;;;1.63;0.97;;;24.80;44.30;;;;;;5004700;28;20450;-71
2023/04/23 11:29:38;;;;;;;2.20;1.23;;;24.50;42.60;;;;;;5001683;28;20504;-72
2023/04/23 11:32:09;;;;;;;3.97;1.10;;;24.10;43.50;;;;;;5002174;28;20474;-70
2023/04/23 11:34:36;;;;;;;1.20;1.00;;;23.90;41.70;;;;;;5002376;28;21047;-70
2023/04/23 11:37:04;;;;;;;1.53;0.90;;;23.60;43.70;;;;;;5001005;28;20437;-69
2023/04/23 11:39:32;;;;;;;1.80;1.10;;;23.50;45.30;;;;;;4999923;28;21051;-69
2023/04/23 11:42:01;;;;;;;1.80;0.93;;;23.30;44.20;;;;;;5000265;28;20478;-70
2023/04/23 11:44:28;;;;;;;1.73;1.63;;;23.90;46.40;;;;;;4999888;28;20442;-71
2023/04/23 11:46:55;;;;;;;2.57;2.37;;;25.00;44.30;;;;;;5002413;28;20992;-71
2023/04/23 11:49:22;;;;;;;3.37;1.60;;;25.60;41.80;;;;;;5007414;28;20445;-72
2023/04/23 11:51:49;;;;;;;1.23;0.90;;;25.80;38.60;;;;;;5011770;28;20548;-72
2023/04/23 11:54:17;;;;;;;1.40;1.20;;;25.90;37.40;;;;;;5003836;28;20497;-71
2023/04/23 11:56:44;;;;;;;1.30;1.20;;;26.00;40.50;;;;;;5000998;28;20447;-72
2023/04/23 11:59:11;;;;;;;2.20;1.70;;;26.10;37.60;;;;;;4996997;28;20959;-73
2023/04/23 12:01:42;;;;;;;1.40;1.30;;;25.60;38.60;;;;;;5005624;28;20572;-72
2023/04/23 12:04:11;;;;;;;1.20;1.10;;;24.90;38.10;;;;;;5005828;28;20438;-72
2023/04/23 12:06:39;;;;;;;1.13;1.03;;;23.70;39.50;;;;;;5006020;28;20438;-72
2023/04/23 12:09:06;;;;;;;1.30;1.20;;;23.30;43.30;;;;;;4998823;28;20470;-72
2023/04/23 12:11:36;;;;;;;1.60;0.80;;;24.40;40.90;;;;;;4995735;28;20439;-72
2023/04/23 12:14:02;;;;;;;1.60;0.97;;;24.80;37.20;;;;;;4999703;28;20527;-75
2023/04/23 12:16:40;;;;;;;1.87;1.13;;;23.90;39.10;;;;;;5005130;28;20442;-75
2023/04/23 12:19:13;;;;;;;1.77;0.70;;;23.10;43.60;;;;;;4997908;28;20487;-76
2023/04/23 12:21:52;;;;;;;1.37;1.03;;;22.50;41.80;;;;;;5000444;28;20545;-71
2023/04/23 12:24:19;;;;;;;2.00;1.13;;;22.00;42.10;;;;;;4991617;28;20450;-69
2023/04/23 12:26:49;;;;;;;1.20;1.03;;;22.30;42.60;;;;;;4998563;28;20442;-68
2023/04/23 12:29:18;;;;;;;1.00;0.90;;;22.80;43.80;;;;;;5009876;28;20533;-68
2023/04/23 12:31:45;;;;;;;1.40;1.30;;;23.20;40.90;;;;;;5012640;28;21031;-68
2023/04/23 12:34:15;;;;;;;3.80;3.33;;;23.60;42.50;;;;;;5011443;28;20495;-68
2023/04/23 12:36:45;;;;;;;5.60;5.00;;;23.20;41.00;;;;;;5012867;28;20456;-68
2023/04/23 12:39:28;;;;;;;2.20;1.40;;;23.00;46.20;;;;;;5009022;28;20461;-70
2023/04/23 12:42:01;;;;;;;9.17;8.30;;;22.90;45.00;;;;;;4993623;28;20492;-74
2023/04/23 12:44:28;;;;;;;4.23;3.83;;;24.00;43.50;;;;;;4997590;28;20517;-74
2023/04/23 12:46:57;;;;;;;1.10;0.90;;;25.70;44.30;;;;;;4999500;28;20522;-74
2023/04/23 12:49:23;;;;;;;1.13;1.00;;;27.10;38.30;;;;;;5000843;28;20449;-74
2023/04/23 12:51:51;;;;;;;2.70;1.10;;;28.30;35.40;;;;;;5002997;28;20833;-73